sensor_id;sensor_type;location;lat;lon;timestamp;pressure;altitude;pressure_sealevel;temperature;humidity
22241;BME280;11289;52.524;13.694;2022-12-29T00:00:29;100052.56;;;6.22;90.55
22241;BME280;11289;52.524;13.694;2022-12-29T00:02:55;100046.53;;;6.20;90.58
22241;BME280;11289;52.524;13.694;2022-12-29T00:05:20;100061.69;;;6.31;90.47
22241;BME280;11289;52.524;13.694;2022-12-29T00:07:45;100038.91;;;6.17;90.23
22241;BME280;11289;52.524;13.694;2022-12-29T00:10:11;100044.78;;;6.24;90.42
22241;BME280;11289;52.524;13.694;2022-12-29T00:12:36;100040.06;;;6.24;90.22
22241;BME280;11289;52.524;13.694;2022-12-29T00:18:36;100058.31;;;6.34;90.77
22241;BME280;11289;52.524;13.694;2022-12-29T00:21:32;100028.50;;;6.14;90.48
22241;BME280;11289;52.524;13.694;2022-12-29T00:31:37;100060.09;;;6.39;90.91
22241;BME280;11289;52.524;13.694;2022-12-29T00:34:21;100041.72;;;6.25;90.59
22241;BME280;11289;52.524;13.694;2022-12-29T00:37:05;100018.50;;;6.18;90.57
22241;BME280;11289;52.524;13.694;2022-12-29T00:39:33;100008.03;;;6.06;90.57
22241;BME280;11289;52.524;13.694;2022-12-29T00:42:20;100027.44;;;6.23;90.19
22241;BME280;11289;52.524;13.694;2022-12-29T00:45:10;100021.94;;;6.23;90.39
22241;BME280;11289;52.524;13.694;2022-12-29T00:47:36;100011.53;;;6.20;90.23
22241;BME280;11289;52.524;13.694;2022-12-29T00:50:01;100002.06;;;6.13;90.23
22241;BME280;11289;52.524;13.694;2022-12-29T00:52:33;99999.19;;;6.18;89.76
22241;BME280;11289;52.524;13.694;2022-12-29T04:56:08;99854.44;;;7.52;79.72
22241;BME280;11289;52.524;13.694;2022-12-29T10:25:54;99777.63;;;11.24;70.19
22241;BME280;11289;52.524;13.694;2022-12-29T10:28:37;99755.34;;;11.08;70.19
22241;BME280;11289;52.524;13.694;2022-12-29T10:31:39;99808.69;;;11.42;70.45
22241;BME280;11289;52.524;13.694;2022-12-29T10:34:05;99782.59;;;11.02;70.84
22241;BME280;11289;52.524;13.694;2022-12-29T10:43:49;99793.00;;;11.05;71.37
22241;BME280;11289;52.524;13.694;2022-12-29T10:46:19;99785.34;;;11.02;71.54
22241;BME280;11289;52.524;13.694;2022-12-29T10:49:06;99807.91;;;11.13;71.83
22241;BME280;11289;52.524;13.694;2022-12-29T10:51:41;99761.28;;;10.78;72.01
22241;BME280;11289;52.524;13.694;2022-12-29T10:56:52;99762.25;;;10.98;72.06
22241;BME280;11289;52.524;13.694;2022-12-29T10:59:29;99781.94;;;11.21;71.75
22241;BME280;11289;52.524;13.694;2022-12-29T11:05:10;99769.50;;;11.63;70.42
22241;BME280;11289;52.524;13.694;2022-12-29T11:07:40;99772.81;;;11.68;69.95
22241;BME280;11289;52.524;13.694;2022-12-29T11:12:59;99759.22;;;11.63;69.52
22241;BME280;11289;52.524;13.694;2022-12-29T11:15:24;99751.06;;;11.55;69.28
22241;BME280;11289;52.524;13.694;2022-12-29T11:17:58;99738.38;;;11.41;69.84
22241;BME280;11289;52.524;13.694;2022-12-29T11:20:40;99730.41;;;11.40;69.92
22241;BME280;11289;52.524;13.694;2022-12-29T11:26:27;99761.34;;;11.54;69.90
22241;BME280;11289;52.524;13.694;2022-12-29T11:31:51;99740.53;;;11.32;69.99
22241;BME280;11289;52.524;13.694;2022-12-29T11:36:53;99773.47;;;11.46;70.59
22241;BME280;11289;52.524;13.694;2022-12-29T11:39:33;99797.47;;;11.54;70.67
22241;BME280;11289;52.524;13.694;2022-12-29T11:42:03;99754.84;;;11.18;70.88
22241;BME280;11289;52.524;13.694;2022-12-29T11:44:36;99773.09;;;11.31;71.27
22241;BME280;11289;52.524;13.694;2022-12-29T11:47:03;99790.66;;;11.36;71.47
22241;BME280;11289;52.524;13.694;2022-12-29T11:49:35;99783.47;;;11.35;71.89
22241;BME280;11289;52.524;13.694;2022-12-29T11:52:07;99764.38;;;11.17;72.20
22241;BME280;11289;52.524;13.694;2022-12-29T11:57:46;99785.16;;;11.23;73.03
22241;BME280;11289;52.524;13.694;2022-12-29T12:00:21;99771.59;;;11.06;73.71
22241;BME280;11289;52.524;13.694;2022-12-29T12:03:21;99823.19;;;11.35;73.75
22241;BME280;11289;52.524;13.694;2022-12-29T12:06:07;99804.97;;;11.22;73.42
22241;BME280;11289;52.524;13.694;2022-12-29T12:08:59;99794.03;;;11.01;73.44
22241;BME280;11289;52.524;13.694;2022-12-29T12:11:39;99794.66;;;10.94;72.92
22241;BME280;11289;52.524;13.694;2022-12-29T12:14:41;99810.88;;;10.92;73.49
22241;BME280;11289;52.524;13.694;2022-12-29T12:20:36;99797.81;;;10.52;76.43
22241;BME280;11289;52.524;13.694;2022-12-29T12:26:09;99837.09;;;10.54;80.69
22241;BME280;11289;52.524;13.694;2022-12-29T12:28:43;99817.81;;;10.33;83.04
22241;BME280;11289;52.524;13.694;2022-12-29T12:31:38;99820.09;;;10.31;83.91
22241;BME280;11289;52.524;13.694;2022-12-29T12:34:44;99819.78;;;10.20;84.54
22241;BME280;11289;52.524;13.694;2022-12-29T12:37:25;99813.53;;;10.10;85.04
22241;BME280;11289;52.524;13.694;2022-12-29T12:51:23;99755.28;;;9.49;87.42
22241;BME280;11289;52.524;13.694;2022-12-29T13:00:19;99792.34;;;9.56;87.84
22241;BME280;11289;52.524;13.694;2022-12-29T13:02:59;99789.94;;;9.55;87.31
22241;BME280;11289;52.524;13.694;2022-12-29T13:22:16;99793.78;;;9.29;87.61
22241;BME280;11289;52.524;13.694;2022-12-29T13:27:38;99794.03;;;9.24;86.54
22241;BME280;11289;52.524;13.694;2022-12-29T13:30:52;99837.34;;;9.41;86.70
22241;BME280;11289;52.524;13.694;2022-12-29T13:36:37;99797.69;;;9.16;87.21
22241;BME280;11289;52.524;13.694;2022-12-29T13:39:13;99800.78;;;9.14;86.70
22241;BME280;11289;52.524;13.694;2022-12-29T13:41:43;99826.22;;;9.29;87.21
22241;BME280;11289;52.524;13.694;2022-12-29T13:44:16;99777.84;;;8.93;86.55
22241;BME280;11289;52.524;13.694;2022-12-29T13:46:44;99825.38;;;9.16;86.71
22241;BME280;11289;52.524;13.694;2022-12-29T13:49:19;99833.69;;;9.16;86.93
22241;BME280;11289;52.524;13.694;2022-12-29T13:51:55;99832.28;;;9.10;87.01
22241;BME280;11289;52.524;13.694;2022-12-29T13:57:04;99836.88;;;9.05;87.75
22241;BME280;11289;52.524;13.694;2022-12-29T14:02:11;99849.09;;;9.04;87.87
22241;BME280;11289;52.524;13.694;2022-12-29T14:04:58;99850.09;;;9.00;88.04
22241;BME280;11289;52.524;13.694;2022-12-29T14:07:25;99837.97;;;8.92;88.08
22241;BME280;11289;52.524;13.694;2022-12-29T14:09:53;99845.13;;;8.93;88.60
22241;BME280;11289;52.524;13.694;2022-12-29T14:14:50;99857.19;;;8.88;88.31
22241;BME280;11289;52.524;13.694;2022-12-29T14:17:20;99852.81;;;8.87;88.38
22241;BME280;11289;52.524;13.694;2022-12-29T14:19:46;99852.22;;;8.82;88.75
22241;BME280;11289;52.524;13.694;2022-12-29T14:22:12;99839.69;;;8.76;88.88
22241;BME280;11289;52.524;13.694;2022-12-29T14:24:44;99856.13;;;8.81;88.75
22241;BME280;11289;52.524;13.694;2022-12-29T14:34:58;99854.44;;;8.67;89.55
22241;BME280;11289;52.524;13.694;2022-12-29T14:37:35;99867.94;;;8.69;89.74
22241;BME280;11289;52.524;13.694;2022-12-29T14:40:24;99833.72;;;8.52;90.86
22241;BME280;11289;52.524;13.694;2022-12-29T14:42:53;99874.69;;;8.80;90.93
22241;BME280;11289;52.524;13.694;2022-12-29T14:47:49;99867.59;;;8.92;91.20
22241;BME280;11289;52.524;13.694;2022-12-29T14:50:41;99881.06;;;9.02;90.99
22241;BME280;11289;52.524;13.694;2022-12-29T14:56:12;99875.63;;;9.05;90.21
22241;BME280;11289;52.524;13.694;2022-12-29T15:01:23;99861.00;;;9.05;89.31
22241;BME280;11289;52.524;13.694;2022-12-29T15:03:53;99876.63;;;9.22;89.38
22241;BME280;11289;52.524;13.694;2022-12-29T15:06:21;99864.56;;;9.05;88.93
22241;BME280;11289;52.524;13.694;2022-12-29T15:08:59;99887.25;;;9.20;88.55
22241;BME280;11289;52.524;13.694;2022-12-29T15:11:44;99892.44;;;9.21;88.82
22241;BME280;11289;52.524;13.694;2022-12-29T15:14:36;99898.13;;;9.25;88.30
22241;BME280;11289;52.524;13.694;2022-12-29T15:17:33;99890.81;;;9.20;88.27
22241;BME280;11289;52.524;13.694;2022-12-29T15:20:13;99897.63;;;9.23;87.96
22241;BME280;11289;52.524;13.694;2022-12-29T15:22:45;99888.72;;;9.17;87.59
22241;BME280;11289;52.524;13.694;2022-12-29T15:25:15;99902.22;;;9.19;87.44
22241;BME280;11289;52.524;13.694;2022-12-29T15:27:40;99906.16;;;9.18;87.54
22241;BME280;11289;52.524;13.694;2022-12-29T15:30:12;99915.19;;;9.27;87.52
22241;BME280;11289;52.524;13.694;2022-12-29T15:32:43;99899.00;;;9.17;87.68
22241;BME280;11289;52.524;13.694;2022-12-29T15:37:50;99945.00;;;9.30;87.19
22241;BME280;11289;52.524;13.694;2022-12-29T15:40:23;99958.78;;;9.39;87.53
22241;BME280;11289;52.524;13.694;2022-12-29T15:45:32;99953.56;;;9.37;86.40
22241;BME280;11289;52.524;13.694;2022-12-29T15:47:59;99938.66;;;9.30;86.13
22241;BME280;11289;52.524;13.694;2022-12-29T15:50:35;99942.22;;;9.30;85.47
22241;BME280;11289;52.524;13.694;2022-12-29T15:53:03;99958.16;;;9.33;85.58
22241;BME280;11289;52.524;13.694;2022-12-29T15:55:38;99949.25;;;9.28;84.78
22241;BME280;11289;52.524;13.694;2022-12-29T15:58:19;99957.78;;;9.22;85.06
22241;BME280;11289;52.524;13.694;2022-12-29T16:00:51;99944.13;;;9.17;84.03
22241;BME280;11289;52.524;13.694;2022-12-29T16:03:18;99942.47;;;9.16;85.06
22241;BME280;11289;52.524;13.694;2022-12-29T16:05:54;99955.19;;;9.17;84.21
22241;BME280;11289;52.524;13.694;2022-12-29T16:08:35;99963.72;;;9.12;85.19
22241;BME280;11289;52.524;13.694;2022-12-29T16:11:17;99959.50;;;9.06;84.96
22241;BME280;11289;52.524;13.694;2022-12-29T16:13:48;99969.78;;;9.05;84.73
22241;BME280;11289;52.524;13.694;2022-12-29T16:16:36;99966.38;;;9.00;85.18
22241;BME280;11289;52.524;13.694;2022-12-29T16:19:33;99975.53;;;9.00;84.82
22241;BME280;11289;52.524;13.694;2022-12-29T16:21:58;99969.03;;;8.96;85.08
22241;BME280;11289;52.524;13.694;2022-12-29T16:24:27;99976.16;;;8.97;84.84
22241;BME280;11289;52.524;13.694;2022-12-29T16:27:13;99988.25;;;8.93;84.75
22241;BME280;11289;52.524;13.694;2022-12-29T16:29:49;99981.31;;;8.86;85.12
22241;BME280;11289;52.524;13.694;2022-12-29T16:32:31;99987.97;;;8.85;85.32
22241;BME280;11289;52.524;13.694;2022-12-29T16:35:13;100003.56;;;8.90;85.37
22241;BME280;11289;52.524;13.694;2022-12-29T16:37:42;99990.28;;;8.83;85.03
22241;BME280;11289;52.524;13.694;2022-12-29T16:40:25;99998.38;;;8.88;85.33
22241;BME280;11289;52.524;13.694;2022-12-29T16:42:59;99999.88;;;8.86;84.70
22241;BME280;11289;52.524;13.694;2022-12-29T16:50:35;100012.75;;;8.82;84.10
22241;BME280;11289;52.524;13.694;2022-12-29T16:53:02;100020.22;;;8.81;83.75
22241;BME280;11289;52.524;13.694;2022-12-29T16:55:29;100006.31;;;8.69;83.49
22241;BME280;11289;52.524;13.694;2022-12-29T16:57:55;100019.94;;;8.74;83.60
22241;BME280;11289;52.524;13.694;2022-12-29T17:00:25;100014.41;;;8.74;83.39
22241;BME280;11289;52.524;13.694;2022-12-29T17:02:55;100010.06;;;8.64;82.29
22241;BME280;11289;52.524;13.694;2022-12-29T17:05:21;100020.31;;;8.64;82.89
22241;BME280;11289;52.524;13.694;2022-12-29T17:07:48;100011.06;;;8.60;82.55
22241;BME280;11289;52.524;13.694;2022-12-29T17:10:14;100024.91;;;8.60;83.00
22241;BME280;11289;52.524;13.694;2022-12-29T17:12:42;99997.78;;;8.35;82.50
22241;BME280;11289;52.524;13.694;2022-12-29T17:15:19;100028.97;;;8.53;81.00
22241;BME280;11289;52.524;13.694;2022-12-29T17:17:48;100039.25;;;8.53;82.13
22241;BME280;11289;52.524;13.694;2022-12-29T17:20:19;100033.06;;;8.47;81.81
22241;BME280;11289;52.524;13.694;2022-12-29T17:22:50;100045.78;;;8.48;82.28
22241;BME280;11289;52.524;13.694;2022-12-29T17:25:26;100046.91;;;8.47;81.85
22241;BME280;11289;52.524;13.694;2022-12-29T17:28:04;100032.28;;;8.38;81.36
22241;BME280;11289;52.524;13.694;2022-12-29T17:30:34;100027.38;;;8.35;80.01
22241;BME280;11289;52.524;13.694;2022-12-29T17:33:03;100035.03;;;8.38;80.98
22241;BME280;11289;52.524;13.694;2022-12-29T17:35:31;100027.06;;;8.36;79.45
22241;BME280;11289;52.524;13.694;2022-12-29T17:37:56;100024.59;;;8.35;80.91
22241;BME280;11289;52.524;13.694;2022-12-29T17:40:32;100034.72;;;8.40;80.41
22241;BME280;11289;52.524;13.694;2022-12-29T17:42:58;100043.81;;;8.40;81.10
22241;BME280;11289;52.524;13.694;2022-12-29T17:45:26;100021.72;;;8.23;80.78
22241;BME280;11289;52.524;13.694;2022-12-29T17:47:52;100049.00;;;8.42;80.73
22241;BME280;11289;52.524;13.694;2022-12-29T17:50:24;100036.66;;;8.39;81.19
22241;BME280;11289;52.524;13.694;2022-12-29T17:52:54;100043.00;;;8.40;80.67
22241;BME280;11289;52.524;13.694;2022-12-29T17:55:22;100047.88;;;8.43;80.60
22241;BME280;11289;52.524;13.694;2022-12-29T17:57:48;100021.06;;;8.26;80.41
22241;BME280;11289;52.524;13.694;2022-12-29T18:00:20;100040.06;;;8.36;79.78
22241;BME280;11289;52.524;13.694;2022-12-29T18:02:46;100016.84;;;8.19;79.92
22241;BME280;11289;52.524;13.694;2022-12-29T18:07:50;100045.13;;;8.34;78.90
22241;BME280;11289;52.524;13.694;2022-12-29T18:10:16;100039.94;;;8.32;78.82
22241;BME280;11289;52.524;13.694;2022-12-29T18:12:43;100051.13;;;8.36;79.24
22241;BME280;11289;52.524;13.694;2022-12-29T18:15:31;100046.72;;;8.35;79.51
22241;BME280;11289;52.524;13.694;2022-12-29T18:18:16;100048.69;;;8.34;79.20
22241;BME280;11289;52.524;13.694;2022-12-29T18:20:42;100057.00;;;8.34;78.46
22241;BME280;11289;52.524;13.694;2022-12-29T18:25:51;100058.47;;;8.32;79.41
22241;BME280;11289;52.524;13.694;2022-12-29T18:28:18;100049.38;;;8.23;79.35
22241;BME280;11289;52.524;13.694;2022-12-29T18:30:47;100064.19;;;8.27;79.38
22241;BME280;11289;52.524;13.694;2022-12-29T18:33:14;100076.03;;;8.27;79.27
22241;BME280;11289;52.524;13.694;2022-12-29T18:35:47;100064.69;;;8.20;78.66
22241;BME280;11289;52.524;13.694;2022-12-29T18:38:13;100066.13;;;8.17;78.44
22241;BME280;11289;52.524;13.694;2022-12-29T18:40:39;100066.66;;;8.11;78.61
22241;BME280;11289;52.524;13.694;2022-12-29T18:43:06;100079.00;;;8.13;79.11
22241;BME280;11289;52.524;13.694;2022-12-29T18:45:32;100056.41;;;7.94;78.95
22241;BME280;11289;52.524;13.694;2022-12-29T18:48:01;100076.41;;;8.08;79.07
22241;BME280;11289;52.524;13.694;2022-12-29T18:50:26;100070.72;;;8.05;79.14
22241;BME280;11289;52.524;13.694;2022-12-29T18:52:52;100069.09;;;8.04;79.76
22241;BME280;11289;52.524;13.694;2022-12-29T18:55:23;100080.16;;;8.12;79.82
22241;BME280;11289;52.524;13.694;2022-12-29T18:57:50;100076.41;;;8.08;79.45
22241;BME280;11289;52.524;13.694;2022-12-29T19:00:17;100080.81;;;8.09;78.99
22241;BME280;11289;52.524;13.694;2022-12-29T19:02:43;100073.63;;;8.08;78.43
22241;BME280;11289;52.524;13.694;2022-12-29T19:05:22;100087.47;;;8.08;78.91
22241;BME280;11289;52.524;13.694;2022-12-29T19:07:48;100075.44;;;8.04;79.56
22241;BME280;11289;52.524;13.694;2022-12-29T19:10:14;100078.03;;;8.09;79.56
22241;BME280;11289;52.524;13.694;2022-12-29T19:12:39;100057.06;;;7.99;79.92
22241;BME280;11289;52.524;13.694;2022-12-29T19:15:05;100078.03;;;8.09;79.93
22241;BME280;11289;52.524;13.694;2022-12-29T19:17:34;100079.97;;;8.09;80.24
22241;BME280;11289;52.524;13.694;2022-12-29T19:20:01;100084.03;;;8.11;80.68
22241;BME280;11289;52.524;13.694;2022-12-29T19:22:27;100083.38;;;8.06;80.37
22241;BME280;11289;52.524;13.694;2022-12-29T19:24:53;100089.56;;;8.11;80.87
22241;BME280;11289;52.524;13.694;2022-12-29T19:27:18;100100.47;;;8.16;80.99
22241;BME280;11289;52.524;13.694;2022-12-29T19:29:43;100090.06;;;8.13;81.02
22241;BME280;11289;52.524;13.694;2022-12-29T19:32:09;100093.78;;;8.17;81.62
22241;BME280;11289;52.524;13.694;2022-12-29T19:34:34;100095.91;;;8.21;81.13
22241;BME280;11289;52.524;13.694;2022-12-29T19:37:00;100091.22;;;8.12;81.28
22241;BME280;11289;52.524;13.694;2022-12-29T19:39:25;100103.06;;;8.22;81.05
22241;BME280;11289;52.524;13.694;2022-12-29T19:41:51;100099.31;;;8.17;80.87
22241;BME280;11289;52.524;13.694;2022-12-29T19:44:16;100082.41;;;8.01;81.01
22241;BME280;11289;52.524;13.694;2022-12-29T19:46:43;100113.16;;;8.17;81.18
22241;BME280;11289;52.524;13.694;2022-12-29T19:49:08;100112.00;;;8.18;81.50
22241;BME280;11289;52.524;13.694;2022-12-29T19:51:34;100107.63;;;8.17;81.24
22241;BME280;11289;52.524;13.694;2022-12-29T19:53:59;100101.94;;;8.14;81.03
22241;BME280;11289;52.524;13.694;2022-12-29T19:56:25;100111.53;;;8.16;81.26
22241;BME280;11289;52.524;13.694;2022-12-29T19:58:50;100119.50;;;8.18;81.17
22241;BME280;11289;52.524;13.694;2022-12-29T20:01:21;100121.28;;;8.23;81.14
22241;BME280;11289;52.524;13.694;2022-12-29T20:03:47;100123.56;;;8.21;81.37
22241;BME280;11289;52.524;13.694;2022-12-29T20:06:13;100123.56;;;8.21;81.37
22241;BME280;11289;52.524;13.694;2022-12-29T20:08:39;100123.06;;;8.18;81.35
22241;BME280;11289;52.524;13.694;2022-12-29T20:11:07;100117.22;;;8.20;81.48
22241;BME280;11289;52.524;13.694;2022-12-29T20:13:34;100115.91;;;8.26;81.41
22241;BME280;11289;52.524;13.694;2022-12-29T20:16:03;100095.44;;;8.10;81.06
22241;BME280;11289;52.524;13.694;2022-12-29T20:18:29;100122.72;;;8.29;81.05
22241;BME280;11289;52.524;13.694;2022-12-29T20:21:10;100113.47;;;8.25;81.07
22241;BME280;11289;52.524;13.694;2022-12-29T20:23:37;100115.09;;;8.26;81.31
22241;BME280;11289;52.524;13.694;2022-12-29T20:26:04;100129.56;;;8.31;81.19
22241;BME280;11289;52.524;13.694;2022-12-29T20:28:30;100121.28;;;8.31;81.12
22241;BME280;11289;52.524;13.694;2022-12-29T20:31:01;100110.38;;;8.26;80.71
22241;BME280;11289;52.524;13.694;2022-12-29T20:33:28;100117.19;;;8.29;80.91
22241;BME280;11289;52.524;13.694;2022-12-29T20:36:03;100118.19;;;8.33;80.93
22241;BME280;11289;52.524;13.694;2022-12-29T20:38:29;100115.75;;;8.31;80.88
22241;BME280;11289;52.524;13.694;2022-12-29T20:40:54;100122.41;;;8.30;81.05
22241;BME280;11289;52.524;13.694;2022-12-29T20:43:20;100097.22;;;8.14;80.99
22241;BME280;11289;52.524;13.694;2022-12-29T20:45:45;100124.84;;;8.32;80.69
22241;BME280;11289;52.524;13.694;2022-12-29T20:48:13;100127.44;;;8.37;80.48
22241;BME280;11289;52.524;13.694;2022-12-29T20:50:39;100119.31;;;8.32;80.60
22241;BME280;11289;52.524;13.694;2022-12-29T20:53:04;100113.63;;;8.28;80.49
22241;BME280;11289;52.524;13.694;2022-12-29T20:55:30;100120.94;;;8.33;80.44
22241;BME280;11289;52.524;13.694;2022-12-29T20:57:55;100112.19;;;8.31;80.86
22241;BME280;11289;52.524;13.694;2022-12-29T21:00:21;100100.94;;;8.27;80.83
22241;BME280;11289;52.524;13.694;2022-12-29T21:02:46;100117.72;;;8.31;80.41
22241;BME280;11289;52.524;13.694;2022-12-29T21:05:13;100093.31;;;8.15;80.45
22241;BME280;11289;52.524;13.694;2022-12-29T21:07:38;100125.34;;;8.34;80.46
22241;BME280;11289;52.524;13.694;2022-12-29T21:10:06;100118.50;;;8.31;79.83
22241;BME280;11289;52.524;13.694;2022-12-29T21:12:31;100116.06;;;8.30;80.07
22241;BME280;11289;52.524;13.694;2022-12-29T21:14:57;100117.72;;;8.31;79.52
22241;BME280;11289;52.524;13.694;2022-12-29T21:17:22;100122.59;;;8.34;79.52
22241;BME280;11289;52.524;13.694;2022-12-29T21:19:47;100125.69;;;8.32;79.15
22241;BME280;11289;52.524;13.694;2022-12-29T21:22:17;100119.63;;;8.30;79.53
22241;BME280;11289;52.524;13.694;2022-12-29T21:24:42;100119.97;;;8.29;79.29
22241;BME280;11289;52.524;13.694;2022-12-29T21:27:08;100120.81;;;8.29;79.16
22241;BME280;11289;52.524;13.694;2022-12-29T21:29:33;100114.44;;;8.29;79.25
22241;BME280;11289;52.524;13.694;2022-12-29T21:31:59;100115.28;;;8.29;79.01
22241;BME280;11289;52.524;13.694;2022-12-29T21:34:27;100119.31;;;8.23;78.31
22241;BME280;11289;52.524;13.694;2022-12-29T21:36:53;100135.75;;;8.28;78.77
22241;BME280;11289;52.524;13.694;2022-12-29T21:39:18;100130.56;;;8.27;78.91
22241;BME280;11289;52.524;13.694;2022-12-29T21:41:44;100142.94;;;8.29;78.90
22241;BME280;11289;52.524;13.694;2022-12-29T21:44:09;100133.00;;;8.19;78.30
22241;BME280;11289;52.524;13.694;2022-12-29T21:46:53;100136.91;;;8.27;78.74
22241;BME280;11289;52.524;13.694;2022-12-29T21:49:19;100144.38;;;8.27;78.42
22241;BME280;11289;52.524;13.694;2022-12-29T21:51:46;100121.13;;;8.10;77.98
22241;BME280;11289;52.524;13.694;2022-12-29T21:54:22;100146.03;;;8.28;77.91
22241;BME280;11289;52.524;13.694;2022-12-29T21:57:07;100149.41;;;8.25;77.60
22241;BME280;11289;52.524;13.694;2022-12-29T21:59:36;100149.25;;;8.30;77.34
22241;BME280;11289;52.524;13.694;2022-12-29T22:02:23;100155.44;;;8.27;77.37
22241;BME280;11289;52.524;13.694;2022-12-29T22:05:11;100144.22;;;8.23;77.50
22241;BME280;11289;52.524;13.694;2022-12-29T22:07:55;100140.66;;;8.14;77.27
22241;BME280;11289;52.524;13.694;2022-12-29T22:10:45;100145.06;;;8.06;77.05
22241;BME280;11289;52.524;13.694;2022-12-29T22:13:34;100163.09;;;8.04;77.31
22241;BME280;11289;52.524;13.694;2022-12-29T22:16:07;100161.31;;;7.99;77.15
22241;BME280;11289;52.524;13.694;2022-12-29T22:18:33;100143.88;;;7.90;77.15
22241;BME280;11289;52.524;13.694;2022-12-29T22:21:09;100151.69;;;7.88;77.01
22241;BME280;11289;52.524;13.694;2022-12-29T22:23:38;100137.88;;;7.70;77.06
22241;BME280;11289;52.524;13.694;2022-12-29T22:26:06;100142.41;;;7.66;77.34
22241;BME280;11289;52.524;13.694;2022-12-29T22:28:40;100143.06;;;7.63;77.42
22241;BME280;11289;52.524;13.694;2022-12-29T22:31:27;100148.56;;;7.63;77.65
22241;BME280;11289;52.524;13.694;2022-12-29T22:33:57;100133.44;;;7.52;77.62
22241;BME280;11289;52.524;13.694;2022-12-29T22:36:23;100153.31;;;7.62;77.45
22241;BME280;11289;52.524;13.694;2022-12-29T22:38:49;100133.75;;;7.41;77.74
22241;BME280;11289;52.524;13.694;2022-12-29T22:41:15;100143.31;;;7.35;77.71
22241;BME280;11289;52.524;13.694;2022-12-29T22:43:40;100141.34;;;7.27;77.92
22241;BME280;11289;52.524;13.694;2022-12-29T22:46:06;100151.72;;;7.30;78.16
22241;BME280;11289;52.524;13.694;2022-12-29T22:48:35;100171.28;;;7.42;78.09
22241;BME280;11289;52.524;13.694;2022-12-29T22:51:01;100177.75;;;7.38;78.24
22241;BME280;11289;52.524;13.694;2022-12-29T22:53:27;100173.38;;;7.37;78.31
22241;BME280;11289;52.524;13.694;2022-12-29T22:56:02;100180.34;;;7.34;78.85
22241;BME280;11289;52.524;13.694;2022-12-29T22:58:28;100181.31;;;7.29;78.51
22241;BME280;11289;52.524;13.694;2022-12-29T23:00:53;100180.94;;;7.22;78.86
22241;BME280;11289;52.524;13.694;2022-12-29T23:03:19;100159.47;;;7.10;78.89
22241;BME280;11289;52.524;13.694;2022-12-29T23:05:57;100169.22;;;7.17;78.86
22241;BME280;11289;52.524;13.694;2022-12-29T23:08:22;100180.94;;;7.22;78.87
22241;BME280;11289;52.524;13.694;2022-12-29T23:10:48;100150.97;;;6.98;78.93
22241;BME280;11289;52.524;13.694;2022-12-29T23:13:13;100195.72;;;7.18;78.86
22241;BME280;11289;52.524;13.694;2022-12-29T23:15:39;100189.69;;;7.15;78.83
22241;BME280;11289;52.524;13.694;2022-12-29T23:18:05;100178.25;;;7.00;78.88
22241;BME280;11289;52.524;13.694;2022-12-29T23:20:30;100204.63;;;7.14;79.64
22241;BME280;11289;52.524;13.694;2022-12-29T23:22:55;100215.03;;;7.18;78.73
22241;BME280;11289;52.524;13.694;2022-12-29T23:25:21;100188.97;;;7.01;79.33
22241;BME280;11289;52.524;13.694;2022-12-29T23:27:46;100210.97;;;7.15;79.01
22241;BME280;11289;52.524;13.694;2022-12-29T23:30:12;100192.03;;;7.00;78.84
22241;BME280;11289;52.524;13.694;2022-12-29T23:32:37;100216.16;;;7.17;78.59
22241;BME280;11289;52.524;13.694;2022-12-29T23:35:02;100193.47;;;6.97;78.38
22241;BME280;11289;52.524;13.694;2022-12-29T23:37:28;100212.56;;;7.07;78.45
22241;BME280;11289;52.524;13.694;2022-12-29T23:39:53;100217.28;;;7.15;78.81
22241;BME280;11289;52.524;13.694;2022-12-29T23:42:19;100226.09;;;7.18;78.29
22241;BME280;11289;52.524;13.694;2022-12-29T23:44:44;100184.88;;;6.90;78.16
22241;BME280;11289;52.524;13.694;2022-12-29T23:47:09;100197.88;;;6.98;78.19
22241;BME280;11289;52.524;13.694;2022-12-29T23:49:35;100225.09;;;7.13;78.24
22241;BME280;11289;52.524;13.694;2022-12-29T23:52:00;100220.22;;;7.10;78.70
22241;BME280;11289;52.524;13.694;2022-12-29T23:54:25;100216.28;;;7.11;78.65
22241;BME280;11289;52.524;13.694;2022-12-29T23:56:51;100223.44;;;7.12;78.04
22241;BME280;11289;52.524;13.694;2022-12-29T23:59:16;100229.50;;;7.14;78.19
